TimeEST,TemperatureF,Dew PointF,Humidity,Sea Level PressureIn,VisibilityMPH,Wind Direction,Wind SpeedMPH,Gust SpeedMPH,PrecipitationIn,Events,Conditions,WindDirDegrees,DateUTC
12:56 AM,25.0,19.0,78,30.00,10.0,WSW,15.0,-,N/A,,Overcast,250,2012-12-23 05:56:00
1:56 AM,25.0,19.0,78,30.00,10.0,WSW,15.0,-,N/A,,Overcast,250,2012-12-23 06:56:00
2:56 AM,24.1,18.0,77,30.01,10.0,WSW,17.3,-,N/A,,Overcast,240,2012-12-23 07:56:00
3:47 AM,21.2,17.6,86,29.92,10.0,WSW,11.5,-,N/A,,Scattered Clouds,240,2012-12-23 08:47:00
3:56 AM,21.9,17.1,82,30.00,10.0,WSW,13.8,-,N/A,,Partly Cloudy,240,2012-12-23 08:56:00
4:44 AM,19.4,15.8,86,29.91,10.0,WSW,11.5,-,N/A,,Mostly Cloudy,240,2012-12-23 09:44:00
4:53 AM,19.4,15.8,86,29.91,10.0,SW,10.4,-,N/A,,Scattered Clouds,230,2012-12-23 09:53:00
4:56 AM,19.9,16.0,85,29.98,10.0,WSW,10.4,-,N/A,,Scattered Clouds,240,2012-12-23 09:56:00
5:17 AM,19.4,15.8,86,29.90,10.0,WSW,9.2,-,N/A,,Partly Cloudy,240,2012-12-23 10:17:00
5:56 AM,19.0,17.1,92,29.97,8.0,SW,8.1,-,N/A,,Scattered Clouds,220,2012-12-23 10:56:00
6:56 AM,18.0,16.0,92,29.97,7.0,SW,6.9,-,N/A,,Partly Cloudy,230,2012-12-23 11:56:00
7:56 AM,17.1,15.1,92,29.97,4.0,SW,3.5,-,N/A,,Scattered Clouds,220,2012-12-23 12:56:00
8:09 AM,17.6,15.8,93,29.88,5.0,SW,3.5,-,N/A,,Mostly Cloudy,220,2012-12-23 13:09:00
8:28 AM,17.6,15.8,93,29.88,5.0,SW,4.6,-,N/A,,Scattered Clouds,220,2012-12-23 13:28:00
8:56 AM,19.0,17.1,92,29.96,6.0,SW,8.1,-,N/A,,Clear,220,2012-12-23 13:56:00
9:56 AM,23.0,19.0,85,29.95,10.0,SW,9.2,-,N/A,,Clear,230,2012-12-23 14:56:00
10:56 AM,26.1,19.0,75,29.92,10.0,SW,15.0,-,N/A,,Clear,220,2012-12-23 15:56:00
11:56 AM,28.9,19.0,67,29.89,10.0,WSW,9.2,-,N/A,,Clear,250,2012-12-23 16:56:00
12:56 PM,30.0,19.0,64,29.87,10.0,West,9.2,-,N/A,,Clear,260,2012-12-23 17:56:00
1:56 PM,30.9,19.9,64,29.87,10.0,WSW,10.4,-,N/A,,Clear,240,2012-12-23 18:56:00
2:56 PM,32.0,21.0,64,29.88,10.0,WSW,11.5,-,N/A,,Clear,250,2012-12-23 19:56:00
3:56 PM,32.0,19.9,61,29.90,10.0,West,10.4,-,N/A,,Clear,260,2012-12-23 20:56:00
4:56 PM,30.9,19.9,64,29.91,10.0,West,9.2,-,N/A,,Clear,260,2012-12-23 21:56:00
5:56 PM,28.9,19.9,69,29.93,10.0,West,6.9,-,N/A,,Clear,260,2012-12-23 22:56:00
6:56 PM,28.0,19.0,69,29.95,10.0,West,8.1,-,N/A,,Clear,260,2012-12-23 23:56:00
7:56 PM,27.0,19.0,72,29.98,10.0,West,5.8,-,N/A,,Clear,280,2012-12-24 00:56:00
8:56 PM,25.0,19.0,78,29.99,10.0,WNW,4.6,-,N/A,,Clear,300,2012-12-24 01:56:00
9:56 PM,25.0,18.0,75,30.01,10.0,West,4.6,-,N/A,,Clear,270,2012-12-24 02:56:00
10:56 PM,24.1,19.0,81,30.02,10.0,WNW,4.6,-,N/A,,Clear,290,2012-12-24 03:56:00
11:56 PM,23.0,19.0,85,30.01,10.0,WNW,5.8,-,N/A,,Clear,300,2012-12-24 04:56:00